Time;durP1;ratioP1;P1;durP2;ratioP2;P2;SDS_P1;SDS_P2;PMS_P1;PMS_P2;Temp;Humidity;BMP_temperature;BMP_pressure;BME280_temperature;BME280_humidity;BME280_pressure;Samples;Min_cycle;Max_cycle;Signal;HPM_P1;HPM_P2
2021/05/15 00:00:06;;;;;;;3.83;0.80;;;;;;;9.46;nan;95900.56;4944277;28;20466;-72
2021/05/15 00:02:33;;;;;;;1.77;0.80;;;;;;;9.42;nan;95893.91;4952984;28;20454;-74
2021/05/15 00:04:59;;;;;;;1.17;0.90;;;;;;;9.44;nan;95906.81;4940809;28;20702;-71
2021/05/15 00:07:25;;;;;;;2.93;0.70;;;;;;;9.40;nan;95900.16;4953845;28;20437;-73
2021/05/15 00:09:52;;;;;;;1.03;0.60;;;;;;;9.40;nan;95901.00;4919241;28;20945;-75
2021/05/15 00:12:18;;;;;;;1.67;0.80;;;;;;;9.35;nan;95892.69;4938474;28;20944;-71
2021/05/15 00:14:44;;;;;;;0.90;0.70;;;;;;;9.31;nan;95895.59;4951772;28;20975;-74
2021/05/15 00:17:11;;;;;;;1.37;0.70;;;;;;;9.29;nan;95895.69;4938275;28;20445;-70
2021/05/15 00:19:38;;;;;;;2.10;0.90;;;;;;;9.29;nan;95893.09;4912157;28;21033;-73
2021/05/15 00:22:04;;;;;;;1.30;0.77;;;;;;;9.26;nan;95895.06;4947077;28;20450;-74
2021/05/15 00:24:31;;;;;;;1.20;0.70;;;;;;;9.21;nan;95895.38;4960635;28;20469;-72
2021/05/15 00:26:57;;;;;;;1.47;1.13;;;;;;;9.21;nan;95879.00;4956950;28;20836;-72
2021/05/15 00:29:24;;;;;;;3.47;0.77;;;;;;;9.26;nan;95887.28;4938381;28;21029;-73
2021/05/15 00:31:50;;;;;;;1.23;0.80;;;;;;;9.24;nan;95884.81;4941339;28;20466;-73
2021/05/15 00:34:16;;;;;;;1.30;0.83;;;;;;;9.19;nan;95884.28;4936926;28;20478;-73
2021/05/15 00:36:43;;;;;;;2.20;0.70;;;;;;;9.11;nan;95883.13;4940639;28;21095;-73
2021/05/15 00:39:10;;;;;;;3.00;0.80;;;;;;;9.01;nan;95876.91;4954411;28;20964;-73
2021/05/15 00:41:37;;;;;;;0.80;0.70;;;;;;;9.00;nan;95880.44;4948725;28;20554;-72
2021/05/15 00:44:16;;;;;;;0.90;0.77;;;;;;;9.01;nan;95888.09;4942476;28;20479;-72
2021/05/15 00:46:45;;;;;;;6.20;0.70;;;;;;;8.91;nan;95886.22;4946298;28;20670;-73
2021/05/15 00:49:11;;;;;;;0.83;0.67;;;;;;;8.90;nan;95895.78;4936765;28;20481;-75
2021/05/15 00:51:38;;;;;;;1.80;0.80;;;;;;;8.91;nan;95889.66;4918133;28;21011;-74
2021/05/15 00:54:06;;;;;;;1.37;0.60;;;;;;;8.88;nan;95889.88;4955977;28;20468;-72
2021/05/15 00:56:33;;;;;;;1.87;0.80;;;;;;;8.87;nan;95890.78;4940422;28;20770;-73
2021/05/15 00:59:00;;;;;;;1.00;0.70;;;;;;;8.87;nan;95895.97;4938006;28;20993;-72
2021/05/15 01:01:26;;;;;;;1.57;0.70;;;;;;;8.87;nan;95883.00;4913254;28;20539;-73
2021/05/15 01:03:53;;;;;;;2.83;1.00;;;;;;;8.86;nan;95894.31;4943098;28;20812;-73
2021/05/15 01:06:20;;;;;;;2.10;0.80;;;;;;;8.89;nan;95885.50;4945760;28;20453;-72
2021/05/15 01:08:46;;;;;;;2.33;0.80;;;;;;;8.92;nan;95887.91;4943603;28;20437;-72
2021/05/15 01:11:15;;;;;;;2.33;0.80;;;;;;;8.94;nan;95881.66;4919126;28;20550;-71
2021/05/15 01:13:50;;;;;;;2.23;1.43;;;;;;;8.94;nan;95881.66;4931037;28;20957;-74
2021/05/15 01:16:17;;;;;;;1.10;0.80;;;;;;;8.91;nan;95884.47;4944951;28;20470;-71
2021/05/15 01:18:43;;;;;;;1.70;0.80;;;;;;;8.84;nan;95891.00;4927459;28;20431;-71
2021/05/15 01:21:10;;;;;;;1.00;0.70;;;;;;;8.86;nan;95890.91;4951526;28;20474;-72
2021/05/15 01:23:37;;;;;;;4.70;0.73;;;;;;;8.86;nan;95888.31;4926523;28;20542;-72
2021/05/15 01:26:12;;;;;;;1.20;0.80;;;;;;;8.88;nan;95892.47;4953705;28;20439;-72
2021/05/15 01:28:38;;;;;;;3.03;0.83;;;;;;;8.84;nan;95883.22;4913118;28;20450;-72
2021/05/15 01:31:05;;;;;;;2.03;0.70;;;;;;;8.78;nan;95883.63;4936115;28;20988;-73
2021/05/15 01:33:32;;;;;;;1.60;0.80;;;;;;;8.74;nan;95879.56;4946564;28;20434;-71
2021/05/15 01:35:58;;;;;;;1.00;0.70;;;;;;;8.72;nan;95878.81;4946899;28;20559;-72
2021/05/15 01:38:25;;;;;;;2.57;0.90;;;;;;;8.56;nan;95879.97;4944917;28;20434;-73
2021/05/15 01:40:51;;;;;;;1.73;0.60;;;;;;;8.50;nan;95881.16;4944038;28;20471;-72
2021/05/15 01:43:19;;;;;;;4.70;0.80;;;;;;;8.50;nan;95869.97;4927371;28;20458;-71
2021/05/15 01:45:45;;;;;;;1.10;0.80;;;;;;;8.51;nan;95882.00;4940683;28;20939;-72
2021/05/15 01:48:15;;;;;;;2.07;0.70;;;;;;;8.45;nan;95885.84;4927509;28;20462;-72
2021/05/15 01:50:42;;;;;;;1.00;0.70;;;;;;;8.47;nan;95876.19;4935520;28;20562;-73
2021/05/15 01:53:09;;;;;;;3.20;0.80;;;;;;;8.41;nan;95875.78;4938500;28;20695;-73
2021/05/15 01:55:36;;;;;;;1.70;0.60;;;;;;;8.39;nan;95868.09;4953891;28;20546;-70
2021/05/15 01:58:02;;;;;;;2.73;0.93;;;;;;;8.39;nan;95878.47;4923322;28;20441;-72
2021/05/15 02:00:29;;;;;;;3.23;0.90;;;;;;;8.34;nan;95867.53;4945314;28;20466;-72
2021/05/15 02:03:22;;;;;;;3.03;1.00;;;;;;;8.32;nan;95859.97;4937685;28;20943;-72
2021/05/15 02:05:48;;;;;;;1.10;0.70;;;;;;;8.32;nan;95856.44;4929920;28;20471;-73
2021/05/15 02:08:15;;;;;;;5.80;1.10;;;;;;;8.26;nan;95856.03;4918796;28;20484;-72
2021/05/15 02:10:43;;;;;;;1.20;0.70;;;;;;;8.27;nan;95858.50;4948183;28;20470;-71
2021/05/15 02:13:10;;;;;;;1.60;0.85;;;;;;;8.22;nan;95861.47;4938247;28;20437;-73
2021/05/15 02:15:37;;;;;;;2.00;0.83;;;;;;;8.18;nan;95852.22;4935990;28;20232;-73
2021/05/15 02:18:04;;;;;;;3.77;0.90;;;;;;;8.18;nan;95857.41;4955468;28;20825;-75
2021/05/15 02:20:31;;;;;;;1.77;1.47;;;;;;;8.10;nan;95844.94;4960402;28;20477;-73
2021/05/15 02:22:57;;;;;;;2.50;0.90;;;;;;;8.14;nan;95852.41;4926953;28;20938;-73
2021/05/15 02:25:25;;;;;;;1.37;0.90;;;;;;;8.16;nan;95848.91;4955119;28;20484;-71
2021/05/15 02:27:52;;;;;;;1.73;1.00;;;;;;;8.14;nan;95849.00;4954584;28;20453;-71
2021/05/15 02:30:21;;;;;;;3.33;0.70;;;;;;;8.10;nan;95849.31;4948437;28;20843;-72
2021/05/15 02:32:47;;;;;;;1.90;0.77;;;;;;;8.09;nan;95839.88;4948093;28;20439;-73
2021/05/15 02:35:14;;;;;;;5.53;0.87;;;;;;;8.13;nan;95846.50;4959284;28;20481;-72
2021/05/15 02:37:41;;;;;;;2.60;0.80;;;;;;;8.09;nan;95834.69;4946958;28;20827;-72
2021/05/15 02:40:08;;;;;;;3.13;1.20;;;;;;;8.11;nan;95840.59;4953495;28;21205;-74
2021/05/15 02:42:35;;;;;;;0.97;0.73;;;;;;;8.13;nan;95838.72;4927994;28;20874;-71
2021/05/15 02:45:03;;;;;;;0.97;0.80;;;;;;;8.18;nan;95838.34;4940548;28;21178;-73
2021/05/15 02:47:30;;;;;;;2.90;0.90;;;;;;;8.23;nan;95834.66;4942228;28;20530;-73
2021/05/15 02:49:56;;;;;;;5.73;1.57;;;;;;;8.32;nan;95839.25;4937498;28;20790;-73
2021/05/15 02:52:22;;;;;;;2.07;0.80;;;;;;;8.37;nan;95832.00;4950857;28;20434;-73
2021/05/15 02:54:48;;;;;;;1.67;0.70;;;;;;;8.38;nan;95835.31;4937187;28;20952;-73
2021/05/15 02:57:15;;;;;;;2.00;0.90;;;;;;;8.38;nan;95831.88;4942873;28;20876;-74
2021/05/15 02:59:41;;;;;;;6.40;0.90;;;;;;;8.40;nan;95833.44;4924955;28;20547;-73
2021/05/15 03:02:09;;;;;;;1.03;0.70;;;;;;;8.42;nan;95820.38;4938336;28;20784;-73
2021/05/15 03:04:35;;;;;;;1.73;0.90;;;;;;;8.44;nan;95824.53;4940957;28;20988;-73
2021/05/15 03:07:01;;;;;;;1.40;0.80;;;;;;;8.47;nan;95834.69;4926593;28;20457;-73
2021/05/15 03:09:28;;;;;;;1.50;0.80;;;;;;;8.49;nan;95832.84;4937959;28;20497;-73
2021/05/15 03:11:54;;;;;;;1.23;0.90;;;;;;;8.49;nan;95827.66;4943637;28;20428;-73
2021/05/15 03:14:20;;;;;;;3.23;1.30;;;;;;;8.52;nan;95822.28;4923138;28;20462;-71
2021/05/15 03:16:47;;;;;;;1.10;0.70;;;;;;;8.57;nan;95816.78;4936656;28;20434;-72
2021/05/15 03:19:14;;;;;;;1.60;1.00;;;;;;;8.58;nan;95821.03;4939644;28;20465;-71
2021/05/15 03:21:41;;;;;;;1.77;0.80;;;;;;;8.56;nan;95828.91;4944521;28;20840;-74
2021/05/15 03:24:08;;;;;;;1.67;0.80;;;;;;;8.59;nan;95823.53;4941545;28;20477;-71
2021/05/15 03:26:34;;;;;;;3.33;0.87;;;;;;;8.58;nan;95819.28;4948423;28;20473;-73
2021/05/15 03:29:01;;;;;;;2.03;0.70;;;;;;;8.61;nan;95816.47;4942800;28;20923;-73
2021/05/15 03:31:27;;;;;;;2.60;1.00;;;;;;;8.74;nan;95812.13;4935355;28;20763;-73
2021/05/15 03:33:53;;;;;;;1.10;0.70;;;;;;;8.72;nan;95810.56;4943290;28;20931;-71
2021/05/15 03:36:21;;;;;;;2.17;1.00;;;;;;;8.76;nan;95815.44;4958348;28;20431;-72
2021/05/15 03:38:50;;;;;;;1.50;0.90;;;;;;;8.74;nan;95811.28;4937486;28;20551;-71
2021/05/15 03:41:17;;;;;;;2.50;0.93;;;;;;;8.77;nan;95811.91;4953707;28;20976;-70
2021/05/15 03:43:43;;;;;;;1.23;0.70;;;;;;;8.78;nan;95812.75;4920256;28;20443;-72
2021/05/15 03:46:09;;;;;;;5.50;1.10;;;;;;;8.80;nan;95816.91;4938354;28;20446;-73
2021/05/15 03:48:35;;;;;;;4.40;0.90;;;;;;;8.80;nan;95811.72;4944998;28;20435;-71
2021/05/15 03:51:02;;;;;;;2.13;1.43;;;;;;;8.79;nan;95814.41;4957624;28;20841;-72
2021/05/15 03:53:29;;;;;;;3.73;1.23;;;;;;;8.73;nan;95801.84;4944145;28;20431;-74
2021/05/15 03:55:55;;;;;;;1.43;1.30;;;;;;;8.80;nan;95816.06;4923031;28;21155;-72
2021/05/15 03:58:22;;;;;;;4.20;1.53;;;;;;;8.81;nan;95813.38;4943572;28;20806;-72
2021/05/15 04:00:48;;;;;;;8.43;2.77;;;;;;;8.80;nan;95811.72;4938352;28;20488;-72
2021/05/15 04:03:14;;;;;;;6.50;2.93;;;;;;;8.83;nan;95808.91;4915689;28;20486;-73
2021/05/15 04:05:40;;;;;;;4.50;2.03;;;;;;;8.88;nan;95806.84;4914757;28;20790;-72
2021/05/15 04:08:07;;;;;;;2.83;1.10;;;;;;;8.89;nan;95811.09;4947408;28;20905;-73
2021/05/15 04:10:36;;;;;;;1.47;0.70;;;;;;;8.91;nan;95809.22;4940425;28;20945;-73
2021/05/15 04:13:07;;;;;;;2.93;0.70;;;;;;;8.88;nan;95813.78;4934820;28;21083;-73
2021/05/15 04:15:38;;;;;;;1.57;0.77;;;;;;;8.82;nan;95814.19;4947928;28;20899;-71
2021/05/15 04:18:11;;;;;;;1.07;0.77;;;;;;;8.77;nan;95804.13;4952138;28;20806;-73
2021/05/15 04:20:38;;;;;;;1.97;0.87;;;;;;;8.77;nan;95800.72;4934279;28;20795;-74
2021/05/15 04:23:05;;;;;;;1.40;0.70;;;;;;;8.81;nan;95815.13;4949441;28;20462;-73
2021/05/15 04:25:31;;;;;;;0.90;0.70;;;;;;;8.82;nan;95815.03;4940633;28;21151;-74
2021/05/15 04:27:58;;;;;;;2.20;0.93;;;;;;;8.83;nan;95821.03;4921412;28;20765;-71
2021/05/15 04:30:26;;;;;;;1.40;0.70;;;;;;;8.82;nan;95814.19;4948281;28;20833;-73
2021/05/15 04:32:53;;;;;;;0.80;0.67;;;;;;;8.79;nan;95814.41;4945208;28;20866;-72
2021/05/15 04:35:19;;;;;;;1.53;0.93;;;;;;;8.84;nan;95817.50;4947489;28;20484;-72
2021/05/15 04:37:45;;;;;;;1.83;0.80;;;;;;;8.88;nan;95819.81;4908827;28;21193;-72
2021/05/15 04:40:12;;;;;;;3.47;0.70;;;;;;;8.82;nan;95814.19;4914882;28;20489;-75
2021/05/15 04:42:39;;;;;;;0.93;0.70;;;;;;;8.89;nan;95811.09;4946918;28;20921;-72
2021/05/15 04:45:09;;;;;;;1.80;0.80;;;;;;;8.82;nan;95812.44;4940463;28;20477;-71
2021/05/15 04:47:35;;;;;;;1.50;0.70;;;;;;;8.92;nan;95810.88;4929721;29;20469;-71
2021/05/15 04:50:04;;;;;;;1.33;0.80;;;;;;;8.93;nan;95817.72;4954164;28;20532;-74
2021/05/15 04:52:31;;;;;;;9.20;0.70;;;;;;;8.90;nan;95810.16;4923605;28;20919;-72
2021/05/15 04:54:58;;;;;;;1.60;1.00;;;;;;;9.00;nan;95813.75;4931932;28;20487;-71
2021/05/15 04:57:24;;;;;;;2.60;0.90;;;;;;;9.10;nan;95819.16;4960180;28;20512;-72
2021/05/15 04:59:50;;;;;;;1.30;0.70;;;;;;;9.19;nan;95814.19;4943500;28;21077;-73
2021/05/15 05:02:17;;;;;;;1.23;0.70;;;;;;;9.27;nan;95811.88;4925153;28;20984;-74
2021/05/15 05:04:44;;;;;;;2.33;0.83;;;;;;;9.36;nan;95816.44;4941466;28;20551;-72
2021/05/15 05:07:10;;;;;;;1.10;0.70;;;;;;;9.44;nan;95813.31;4937749;28;20780;-73
2021/05/15 05:09:36;;;;;;;1.20;0.83;;;;;;;9.52;nan;95822.19;4931335;28;20937;-72
2021/05/15 05:12:04;;;;;;;0.90;0.70;;;;;;;9.60;nan;95819.09;4931373;28;20794;-72
2021/05/15 05:14:30;;;;;;;1.67;0.60;;;;;;;9.69;nan;95814.06;4942682;28;20945;-73
2021/05/15 05:16:56;;;;;;;3.27;0.90;;;;;;;9.84;nan;95807.78;4928680;28;20443;-72
2021/05/15 05:19:23;;;;;;;1.07;0.80;;;;;;;10.09;nan;95799.88;4963775;28;20473;-73
2021/05/15 05:21:51;;;;;;;1.00;0.80;;;;;;;10.20;nan;95804.31;4922467;28;20459;-74
2021/05/15 05:24:18;;;;;;;1.10;0.60;;;;;;;10.27;nan;95801.16;4947278;28;20470;-74
2021/05/15 05:26:44;;;;;;;3.33;1.10;;;;;;;10.13;nan;95792.69;4933849;28;20439;-72
2021/05/15 05:29:11;;;;;;;4.93;2.97;;;;;;;10.21;nan;95798.16;4948250;28;20821;-75
2021/05/15 05:31:38;;;;;;;17.00;6.90;;;;;;;10.22;nan;95803.25;4950010;28;20454;-73
2021/05/15 05:34:07;;;;;;;1.50;0.80;;;;;;;10.24;nan;95806.56;4919447;28;20493;-73
2021/05/15 05:36:35;;;;;;;3.43;1.33;;;;;;;10.37;nan;95801.28;4948445;28;20459;-73
2021/05/15 05:39:04;;;;;;;1.03;0.70;;;;;;;10.47;nan;95789.28;4927998;28;21194;-72
2021/05/15 05:41:30;;;;;;;1.17;0.70;;;;;;;10.72;nan;95799.50;4946515;28;20926;-74
2021/05/15 05:43:56;;;;;;;0.90;0.70;;;;;;;10.75;nan;95802.69;4942178;28;20555;-73
2021/05/15 05:46:23;;;;;;;1.87;1.00;;;;;;;10.69;nan;95803.16;4953351;28;20548;-74
2021/05/15 05:48:49;;;;;;;3.43;0.80;;;;;;;10.72;nan;95795.13;4911876;28;20842;-72
2021/05/15 05:51:16;;;;;;;1.30;0.90;;;;;;;10.76;nan;95799.16;4937974;28;20905;-74
2021/05/15 05:53:43;;;;;;;1.83;1.33;;;;;;;10.70;nan;95791.78;4957178;28;20853;-71
2021/05/15 05:56:09;;;;;;;1.50;0.70;;;;;;;10.72;nan;95796.91;4946130;28;20884;-72
2021/05/15 05:58:36;;;;;;;1.23;0.80;;;;;;;10.69;nan;95792.75;4939825;28;20444;-73
2021/05/15 06:01:02;;;;;;;1.00;0.67;;;;;;;10.80;nan;95792.78;4945010;28;20438;-72
2021/05/15 06:03:28;;;;;;;4.13;1.17;;;;;;;10.93;nan;95790.91;4919654;28;20805;-73
2021/05/15 06:05:54;;;;;;;1.37;0.70;;;;;;;11.25;nan;95791.84;4938863;28;20935;-73
2021/05/15 06:08:21;;;;;;;3.20;0.80;;;;;;;11.56;nan;95790.31;4947325;28;20441;-73
2021/05/15 06:10:51;;;;;;;5.60;0.70;;;;;;;11.75;nan;95786.16;4924955;28;20467;-71
2021/05/15 06:13:18;;;;;;;0.83;0.60;;;;;;;11.78;nan;95785.09;4941836;28;20790;-73
2021/05/15 06:15:45;;;;;;;1.90;0.90;;;;;;;11.77;nan;95786.84;4958386;28;20474;-71
2021/05/15 06:18:12;;;;;;;0.90;0.70;;;;;;;11.79;nan;95795.38;4949409;28;20936;-74
2021/05/15 06:20:38;;;;;;;1.93;0.60;;;;;;;11.72;nan;95790.78;4948043;28;21039;-71
2021/05/15 06:23:05;;;;;;;1.10;0.70;;;;;;;11.71;nan;95783.91;4920626;28;20474;-73
2021/05/15 06:25:31;;;;;;;2.60;0.83;;;;;;;11.88;nan;95794.66;4942596;28;20939;-71
2021/05/15 06:27:58;;;;;;;1.43;0.73;;;;;;;11.79;nan;95787.56;4940785;28;20804;-74
2021/05/15 06:30:25;;;;;;;1.50;0.70;;;;;;;11.67;nan;95783.31;4947765;28;20465;-71
2021/05/15 06:32:51;;;;;;;0.80;0.50;;;;;;;11.40;nan;95780.25;4929876;28;20444;-74
2021/05/15 06:35:17;;;;;;;3.37;0.67;;;;;;;11.37;nan;95790.91;4937586;28;20922;-70
2021/05/15 06:37:44;;;;;;;1.57;0.70;;;;;;;11.34;nan;95791.13;4933744;28;21007;-72
2021/05/15 06:40:10;;;;;;;1.40;0.70;;;;;;;11.41;nan;95784.50;4946410;28;20848;-70
2021/05/15 06:42:37;;;;;;;1.70;0.70;;;;;;;11.45;nan;95785.94;4931490;28;20968;-73
2021/05/15 06:45:06;;;;;;;1.10;0.70;;;;;;;11.51;nan;95793.28;4939270;28;20538;-73
2021/05/15 06:47:32;;;;;;;2.07;0.70;;;;;;;11.39;nan;95789.00;4928963;28;20434;-70
2021/05/15 06:49:58;;;;;;;3.67;1.00;;;;;;;11.29;nan;95792.44;4949163;28;20467;-72
2021/05/15 06:52:25;;;;;;;1.40;0.63;;;;;;;11.32;nan;95790.44;4944528;28;20483;-72
2021/05/15 06:54:51;;;;;;;1.93;0.73;;;;;;;11.31;nan;95790.53;4952538;28;20474;-75
2021/05/15 06:57:19;;;;;;;0.90;0.70;;;;;;;11.34;nan;95791.13;4932594;28;20450;-70
2021/05/15 06:59:45;;;;;;;1.20;0.67;;;;;;;11.41;nan;95789.72;4948364;28;20467;-72
2021/05/15 07:02:12;;;;;;;1.83;0.60;;;;;;;11.33;nan;95789.47;4908390;28;20489;-72
2021/05/15 07:04:39;;;;;;;2.37;0.83;;;;;;;11.41;nan;95792.31;4944187;28;20470;-72
2021/05/15 07:07:05;;;;;;;1.60;0.63;;;;;;;11.37;nan;95790.91;4941945;28;20760;-71
2021/05/15 07:09:31;;;;;;;1.00;0.70;;;;;;;11.23;nan;95788.56;4939008;28;20479;-73
2021/05/15 07:11:57;;;;;;;1.07;0.70;;;;;;;11.14;nan;95785.81;4944442;28;20440;-75
2021/05/15 07:14:24;;;;;;;8.30;2.30;;;;;;;11.12;nan;95780.72;4946748;28;20940;-71
2021/05/15 07:16:50;;;;;;;2.27;1.10;;;;;;;11.10;nan;95782.63;4956986;28;20548;-72
2021/05/15 07:19:18;;;;;;;1.53;0.80;;;;;;;11.15;nan;95780.50;4953124;28;20509;-69
2021/05/15 07:21:44;;;;;;;1.20;0.70;;;;;;;11.17;nan;95782.97;4909745;28;21141;-72
2021/05/15 07:24:10;;;;;;;4.23;0.70;;;;;;;11.21;nan;95781.81;4958096;28;20927;-71
2021/05/15 07:26:36;;;;;;;1.50;1.10;;;;;;;11.23;nan;95772.94;4935427;28;20443;-74
2021/05/15 07:29:04;;;;;;;1.20;0.80;;;;;;;11.34;nan;95775.50;4928441;28;20906;-74
2021/05/15 07:31:30;;;;;;;2.80;0.90;;;;;;;11.41;nan;95774.06;4958465;28;20861;-72
2021/05/15 07:33:57;;;;;;;1.13;0.80;;;;;;;11.37;nan;95756.22;4944678;28;20478;-74
2021/05/15 07:36:24;;;;;;;2.33;0.90;;;;;;;11.65;nan;95785.22;4925785;28;20808;-72
2021/05/15 07:38:50;;;;;;;3.40;0.80;;;;;;;11.70;nan;95772.66;4934624;28;20469;-72
2021/05/15 07:41:16;;;;;;;2.93;0.80;;;;;;;11.82;nan;95756.03;4937580;28;20498;-70
2021/05/15 07:43:43;;;;;;;1.87;0.90;;;;;;;12.00;nan;95764.16;4944606;28;20436;-73
2021/05/15 07:46:10;;;;;;;2.37;1.00;;;;;;;11.98;nan;95761.66;4943503;28;20435;-73
2021/05/15 07:48:40;;;;;;;3.83;1.10;;;;;;;11.97;nan;95760.00;4919962;28;20922;-72
2021/05/15 07:51:09;;;;;;;3.30;1.10;;;;;;;12.10;nan;95759.84;4952286;28;20911;-70
2021/05/15 07:53:36;;;;;;;1.40;1.30;;;;;;;12.12;nan;95764.00;4917193;28;20977;-72
2021/05/15 07:56:03;;;;;;;7.43;1.57;;;;;;;12.05;nan;95762.00;4948850;28;20895;-71
2021/05/15 07:58:30;;;;;;;1.53;0.83;;;;;;;12.13;nan;95767.41;4908222;28;20437;-72
2021/05/15 08:00:57;;;;;;;2.60;0.90;;;;;;;12.10;nan;95760.69;4956441;28;20441;-71
2021/05/15 08:03:23;;;;;;;1.93;0.93;;;;;;;12.03;nan;95758.69;4913800;29;20482;-70
2021/05/15 08:05:50;;;;;;;1.20;0.93;;;;;;;12.13;nan;95760.41;4917420;28;20545;-72
2021/05/15 08:08:16;;;;;;;4.93;1.20;;;;;;;12.23;nan;95760.50;4912447;28;20462;-72
2021/05/15 08:10:44;;;;;;;1.03;0.87;;;;;;;12.25;nan;95767.25;4937754;28;20475;-73
2021/05/15 08:13:10;;;;;;;0.90;0.60;;;;;;;12.18;nan;95753.06;4926080;28;20480;-73
2021/05/15 08:15:37;;;;;;;2.90;0.90;;;;;;;12.25;nan;95753.38;4934199;28;20473;-73
2021/05/15 08:18:03;;;;;;;3.30;1.07;;;;;;;12.40;nan;95752.97;4945037;28;20925;-70
2021/05/15 08:20:29;;;;;;;1.73;0.70;;;;;;;12.46;nan;95747.22;4955964;28;20567;-74
2021/05/15 08:22:56;;;;;;;2.93;1.43;;;;;;;12.43;nan;95757.91;4939892;28;20949;-71
2021/05/15 08:25:25;;;;;;;1.50;0.70;;;;;;;12.36;nan;95738.50;4937736;28;20446;-70
2021/05/15 08:27:53;;;;;;;4.63;1.33;;;;;;;12.46;nan;95747.22;4947714;28;20435;-74
2021/05/15 08:30:21;;;;;;;1.20;0.70;;;;;;;12.60;nan;95744.28;4950208;28;20474;-70
2021/05/15 08:32:51;;;;;;;1.23;0.73;;;;;;;12.82;nan;95744.13;4933346;28;20806;-74
2021/05/15 08:35:17;;;;;;;1.43;0.60;;;;;;;12.91;nan;95736.34;4944175;28;20473;-73
2021/05/15 08:37:44;;;;;;;1.90;0.90;;;;;;;12.92;nan;95742.41;4917850;28;20940;-73
2021/05/15 08:40:11;;;;;;;2.80;0.80;;;;;;;12.98;nan;95736.72;4944660;28;20485;-71
2021/05/15 08:42:39;;;;;;;2.50;0.80;;;;;;;13.08;nan;95734.97;4909747;28;20483;-73
2021/05/15 08:45:09;;;;;;;1.00;0.60;;;;;;;13.17;nan;95727.16;4946628;28;20520;-72
2021/05/15 08:47:37;;;;;;;0.90;0.50;;;;;;;13.20;nan;95732.13;4919867;28;20551;-71
2021/05/15 08:50:07;;;;;;;1.17;0.67;;;;;;;13.41;nan;95721.59;4951694;28;20475;-73
2021/05/15 08:52:36;;;;;;;2.60;0.70;;;;;;;13.79;nan;95738.19;4946056;28;20596;-73
2021/05/15 08:55:04;;;;;;;1.70;0.90;;;;;;;13.93;nan;95731.75;4945369;28;20941;-74
2021/05/15 08:57:30;;;;;;;2.10;1.10;;;;;;;13.92;nan;95740.56;4942540;28;20748;-74
2021/05/15 08:59:56;;;;;;;2.50;0.80;;;;;;;13.98;nan;95729.53;4933062;28;20976;-71
2021/05/15 09:02:23;;;;;;;1.93;0.70;;;;;;;14.00;nan;95719.78;4943695;28;20804;-71
2021/05/15 09:05:10;;;;;;;5.03;0.93;;;;;;;13.91;nan;95721.41;4942519;28;20573;-73
2021/05/15 09:07:38;;;;;;;2.60;0.70;;;;;;;14.04;nan;95715.91;4917155;29;20844;-74
2021/05/15 09:10:07;;;;;;;0.93;0.70;;;;;;;14.12;nan;95718.66;4920306;28;20530;-73
2021/05/15 09:12:34;;;;;;;5.17;0.70;;;;;;;14.12;nan;95713.44;4940201;28;20442;-72
2021/05/15 09:15:05;;;;;;;1.40;0.67;;;;;;;14.23;nan;95710.72;4929703;28;21023;-70
2021/05/15 09:17:43;;;;;;;2.13;1.00;;;;;;;14.38;nan;95722.41;4942983;28;20446;-72
2021/05/15 09:20:12;;;;;;;1.20;0.70;;;;;;;14.24;nan;95712.38;4956461;28;20899;-74
2021/05/15 09:22:39;;;;;;;2.40;0.77;;;;;;;14.46;nan;95706.84;4909627;29;21131;-73
2021/05/15 09:25:10;;;;;;;2.77;0.70;;;;;;;14.39;nan;95710.97;4939465;28;20918;-73
2021/05/15 09:27:38;;;;;;;1.80;0.80;;;;;;;14.20;nan;95706.59;4944928;28;20834;-71
2021/05/15 09:30:06;;;;;;;3.37;0.70;;;;;;;14.09;nan;95703.25;4937385;28;21014;-72
2021/05/15 09:32:35;;;;;;;1.10;0.67;;;;;;;13.89;nan;95710.28;4939183;28;20447;-75
2021/05/15 09:35:06;;;;;;;3.03;0.70;;;;;;;13.97;nan;95709.56;4933581;28;20810;-72
2021/05/15 09:37:36;;;;;;;0.90;0.60;;;;;;;14.02;nan;95696.91;4935249;28;21007;-73
2021/05/15 09:40:14;;;;;;;0.83;0.63;;;;;;;14.10;nan;95697.03;4936187;28;20462;-70
2021/05/15 09:42:49;;;;;;;3.80;0.87;;;;;;;14.18;nan;95705.06;4913069;28;20507;-73
2021/05/15 09:45:22;;;;;;;2.03;0.70;;;;;;;14.37;nan;95691.97;4913756;28;20552;-71
2021/05/15 09:47:51;;;;;;;1.00;0.70;;;;;;;14.37;nan;95690.16;4933892;28;20448;-75
2021/05/15 09:50:21;;;;;;;1.37;0.70;;;;;;;14.58;nan;95685.56;4914522;28;20837;-74
2021/05/15 09:52:50;;;;;;;2.17;0.90;;;;;;;14.54;nan;95678.16;4946244;28;20440;-73
2021/05/15 09:55:18;;;;;;;1.00;0.80;;;;;;;14.36;nan;95675.41;4926449;28;20509;-71
2021/05/15 09:57:55;;;;;;;1.10;0.80;;;;;;;14.41;nan;95673.22;4914297;28;20447;-75
2021/05/15 10:00:23;;;;;;;4.80;1.10;;;;;;;14.50;nan;95669.75;4929887;28;20470;-76
2021/05/15 10:02:55;;;;;;;0.80;0.60;;;;;;;14.50;nan;95663.66;4934407;28;20559;-77
2021/05/15 10:05:23;;;;;;;2.37;0.80;;;;;;;14.64;nan;95664.06;4930771;28;20564;-77
2021/05/15 10:07:51;;;;;;;1.40;0.60;;;;;;;14.76;nan;95662.09;4932546;28;20437;-75
2021/05/15 10:10:18;;;;;;;5.43;1.03;;;;;;;14.79;nan;95656.56;4927142;28;20992;-76
2021/05/15 10:12:46;;;;;;;2.50;0.93;;;;;;;14.97;nan;95652.22;4933128;28;20972;-74
2021/05/15 10:15:14;;;;;;;1.40;0.80;;;;;;;14.78;nan;95660.97;4934210;28;20803;-74
2021/05/15 10:17:41;;;;;;;3.63;0.90;;;;;;;14.80;nan;95642.50;4933677;28;20511;-73
2021/05/15 10:20:10;;;;;;;1.37;0.80;;;;;;;15.26;nan;95645.03;4942334;28;20467;-74
2021/05/15 10:22:40;;;;;;;1.73;0.80;;;;;;;15.77;nan;95645.28;4934761;28;20489;-76
2021/05/15 10:25:13;;;;;;;1.27;0.63;;;;;;;15.81;nan;95638.75;4939609;28;21262;-75
2021/05/15 10:27:40;;;;;;;5.23;1.07;;;;;;;15.52;nan;95633.72;4942930;28;20442;-76
2021/05/15 10:30:14;;;;;;;2.07;1.00;;;;;;;15.70;nan;95631.13;4925836;28;20743;-78
2021/05/15 10:32:54;;;;;;;1.63;0.80;;;;;;;15.63;nan;95624.81;4928912;28;20494;-76
2021/05/15 10:35:34;;;;;;;2.40;0.90;;;;;;;15.88;nan;95610.94;4932384;28;21003;-74
2021/05/15 10:38:08;;;;;;;1.30;1.00;;;;;;;15.77;nan;95613.81;4948442;28;20898;-74
2021/05/15 10:40:52;;;;;;;2.50;0.70;;;;;;;15.41;nan;95606.91;4924294;28;20490;-77
2021/05/15 10:43:33;;;;;;;8.53;1.07;;;;;;;15.30;nan;95613.13;4939365;28;20481;-76
2021/05/15 10:46:14;;;;;;;1.90;0.80;;;;;;;15.37;nan;95600.28;4953399;28;20991;-76
2021/05/15 10:48:41;;;;;;;1.87;0.80;;;;;;;15.23;nan;95590.25;4911406;28;20948;-75
2021/05/15 10:51:09;;;;;;;4.80;0.80;;;;;;;15.19;nan;95602.03;4949382;28;20431;-73
2021/05/15 10:53:37;;;;;;;5.03;0.80;;;;;;;15.08;nan;95595.19;4938178;28;21036;-76
2021/05/15 10:56:12;;;;;;;2.10;0.70;;;;;;;14.79;nan;95591.91;4942400;28;20493;-77
2021/05/15 10:58:42;;;;;;;3.90;0.80;;;;;;;14.67;nan;95589.63;4949214;28;20523;-75
2021/05/15 11:01:16;;;;;;;2.70;0.87;;;;;;;14.65;nan;95597.59;4933872;28;20859;-72
2021/05/15 11:03:48;;;;;;;1.33;0.70;;;;;;;14.81;nan;95591.75;4928316;28;20810;-74
2021/05/15 11:06:18;;;;;;;3.43;0.70;;;;;;;15.03;nan;95592.19;4948198;28;20449;-74
2021/05/15 11:09:00;;;;;;;6.13;0.80;;;;;;;14.97;nan;95589.31;4911333;28;20941;-72
2021/05/15 11:11:40;;;;;;;6.13;0.73;;;;;;;15.10;nan;95588.00;4938616;28;20980;-74
2021/05/15 11:14:28;;;;;;;4.17;0.80;;;;;;;15.27;nan;95591.63;4955925;28;20533;-75
2021/05/15 11:18:38;;;;;;;1.67;0.60;;;;;;;14.13;43.60;95626.84;5062763;27;20590;-42
2021/05/15 11:21:07;;;;;;;2.27;0.70;;;;;;;14.05;44.32;95622.31;4933643;28;20464;-35
2021/05/15 11:23:36;;;;;;;2.20;0.80;;;;;;;13.91;43.45;95623.69;5049319;28;20445;-42
2021/05/15 11:26:06;;;;;;;1.77;0.70;;;;;;;14.03;43.96;95583.00;5051406;28;20866;-35
2021/05/15 11:28:34;;;;;;;1.83;0.77;;;;;;;14.36;42.52;95603.50;5052720;28;20436;-42
2021/05/15 11:31:08;;;;;;;6.57;1.17;;;;;;;14.42;43.61;95598.44;5052033;28;20465;-36
2021/05/15 11:33:36;;;;;;;3.90;0.80;;;;;;;14.75;44.02;95598.69;5051486;28;20751;-36
2021/05/15 11:36:05;;;;;;;2.60;0.80;;;;;;;14.65;43.77;95602.44;5051821;28;20477;-41
2021/05/15 11:38:33;;;;;;;5.30;1.10;;;;;;;14.40;44.38;95595.13;5052155;28;20807;-35
2021/05/15 11:41:03;;;;;;;2.93;1.00;;;;;;;14.02;45.64;95599.78;5050858;28;20971;-42
2021/05/15 11:43:33;;;;;;;1.27;0.80;;;;;;;14.06;45.49;95594.22;5053744;28;20490;-35
2021/05/15 11:46:03;;;;;;;2.10;0.80;;;;;;;13.90;45.47;95590.47;5050141;28;20987;-42
2021/05/15 11:48:31;;;;;;;7.67;1.50;;;;;;;14.17;45.31;95610.59;5051247;28;21143;-42
2021/05/15 11:51:00;;;;;;;15.27;1.13;;;;;;;14.35;43.86;95596.59;5050740;28;20679;-41
2021/05/15 11:53:30;;;;;;;4.40;1.23;;;;;;;14.46;44.03;95588.44;5051003;28;20900;-37
2021/05/15 11:55:58;;;;;;;3.20;0.97;;;;;;;14.51;44.57;95585.34;5050316;28;20460;-35
2021/05/15 11:58:26;;;;;;;2.00;0.83;;;;;;;14.31;44.79;95576.78;5050958;28;20773;-35